Time;durP1;ratioP1;P1;durP2;ratioP2;P2;SDS_P1;SDS_P2;PMS_P1;PMS_P2;Temp;Humidity;BMP_temperature;BMP_pressure;BME280_temperature;BME280_humidity;BME280_pressure;Samples;Min_cycle;Max_cycle;Signal;HPM_P1;HPM_P2
2021/12/12 00:01:20;;;;;;;;;;;;;;;4.03;100.00;101994.31;5034206;28;20047;-74
2021/12/12 00:03:50;;;;;;;31.33;11.02;;;;;;;4.04;100.00;101992.50;5036703;28;19920;-75
2021/12/12 00:06:21;;;;;;;39.92;11.57;;;;;;;4.04;100.00;101989.88;5035099;28;20087;-74
2021/12/12 00:08:55;;;;;;;41.17;12.75;;;;;;;4.02;100.00;101995.22;5032734;28;20021;-75
2021/12/12 00:11:27;;;;;;;54.38;27.15;;;;;;;4.02;100.00;101982.06;5032227;28;20037;-75
2021/12/12 00:13:58;;;;;;;37.50;16.77;;;;;;;4.02;100.00;101973.31;5032610;28;20021;-75
2021/12/12 00:16:24;;;;;;;46.20;14.30;;;;;;;4.02;100.00;101971.50;5031833;28;20036;-75
2021/12/12 00:18:50;;;;;;;36.70;13.10;;;;;;;4.07;100.00;101968.66;5031742;28;20053;-74
2021/12/12 00:21:18;;;;;;;36.97;11.63;;;;;;;4.04;100.00;101968.81;5014385;28;20385;-75
2021/12/12 00:23:44;;;;;;;32.03;11.75;;;;;;;4.04;100.00;101963.53;5013638;28;20029;-74
2021/12/12 00:26:09;;;;;;;35.03;11.27;;;;;;;4.03;100.00;101956.56;5031670;28;20389;-74
2021/12/12 00:28:35;;;;;;;35.95;12.20;;;;;;;4.05;100.00;101952.09;5031329;28;20090;-78
2021/12/12 00:31:08;;;;;;;43.35;11.93;;;;;;;4.06;100.00;101959.06;5031829;28;20033;-73
2021/12/12 00:33:41;;;;;;;34.15;11.65;;;;;;;4.04;100.00;101950.38;5031815;28;20116;-78
2021/12/12 00:36:06;;;;;;;39.40;12.30;;;;;;;4.03;100.00;101960.06;5031604;28;20172;-74
2021/12/12 00:38:33;;;;;;;27.55;12.18;;;;;;;4.02;100.00;101954.88;5031378;28;20144;-74
2021/12/12 00:41:05;;;;;;;34.15;11.82;;;;;;;4.05;100.00;101950.31;5031860;28;20036;-74
2021/12/12 00:43:39;;;;;;;29.30;11.75;;;;;;;4.08;100.00;101941.41;5031907;28;20026;-74
2021/12/12 00:46:06;;;;;;;50.72;12.10;;;;;;;4.08;100.00;101940.56;5031485;28;20038;-73
2021/12/12 00:48:34;;;;;;;35.38;10.90;;;;;;;4.11;100.00;101945.69;5031157;28;20030;-74
2021/12/12 00:51:01;;;;;;;31.17;11.75;;;;;;;4.12;100.00;101944.75;5013805;28;20034;-74
2021/12/12 00:53:27;;;;;;;33.25;11.38;;;;;;;4.13;100.00;101949.09;5030990;28;20064;-73
2021/12/12 00:55:54;;;;;;;34.88;10.90;;;;;;;4.16;100.00;101955.06;5013043;28;20124;-74
2021/12/12 00:58:20;;;;;;;28.13;10.07;;;;;;;4.16;100.00;101934.00;5013255;28;20042;-73
2021/12/12 01:01:02;;;;;;;24.92;9.95;;;;;;;4.21;100.00;101947.84;5031205;28;20045;-74
2021/12/12 01:03:33;;;;;;;35.10;10.80;;;;;;;4.19;100.00;101925.13;5031075;28;20052;-73
2021/12/12 01:06:00;;;;;;;29.13;10.10;;;;;;;4.21;100.00;101934.66;5030486;28;20083;-73
2021/12/12 01:08:28;;;;;;;29.95;10.57;;;;;;;4.22;100.00;101935.50;5030523;28;20286;-74
2021/12/12 01:11:12;;;;;;;26.02;11.25;;;;;;;4.21;100.00;101931.16;5029101;28;20030;-74
2021/12/12 01:13:39;;;;;;;34.55;10.05;;;;;;;4.23;100.00;101921.41;5031228;28;20212;-73
2021/12/12 01:16:19;;;;;;;29.00;9.90;;;;;;;4.25;100.00;101940.63;5030252;28;20037;-74
2021/12/12 01:18:53;;;;;;;27.30;10.20;;;;;;;4.23;100.00;101924.91;5030647;28;20042;-73
2021/12/12 01:21:25;;;;;;;31.90;11.02;;;;;;;4.23;100.00;101930.16;5031045;28;20028;-73
2021/12/12 01:23:59;;;;;;;37.15;11.68;;;;;;;4.24;100.00;101934.50;5031078;28;20113;-74
2021/12/12 01:26:28;;;;;;;29.70;11.23;;;;;;;4.26;100.00;101930.97;5013597;28;20068;-75
2021/12/12 01:28:55;;;;;;;34.40;11.77;;;;;;;4.26;100.00;101928.34;5030553;28;20029;-75
2021/12/12 01:31:29;;;;;;;34.55;11.55;;;;;;;4.30;100.00;101943.03;5031161;28;20087;-76
2021/12/12 01:34:10;;;;;;;32.42;10.80;;;;;;;4.29;100.00;101934.31;5031222;28;20434;-75
2021/12/12 01:36:52;;;;;;;26.35;10.68;;;;;;;4.29;100.00;101938.72;5029714;28;20040;-75
2021/12/12 01:39:22;;;;;;;33.20;11.48;;;;;;;4.29;100.00;101938.72;5030938;28;20033;-73
2021/12/12 01:42:06;;;;;;;29.95;10.80;;;;;;;4.29;100.00;101936.09;5031406;28;20040;-74
2021/12/12 01:44:34;;;;;;;25.40;10.73;;;;;;;4.28;100.00;101932.59;5031262;28;20151;-74
2021/12/12 01:47:05;;;;;;;25.98;11.10;;;;;;;4.30;100.00;101922.84;5030416;28;20033;-74
2021/12/12 01:49:34;;;;;;;26.35;10.73;;;;;;;4.36;100.00;101924.31;5030738;28;20202;-75
2021/12/12 01:52:00;;;;;;;29.25;10.75;;;;;;;4.35;100.00;101927.91;5030336;28;20060;-74
2021/12/12 01:54:41;;;;;;;29.77;11.68;;;;;;;4.34;100.00;101920.91;5013141;28;20125;-75
2021/12/12 01:57:08;;;;;;;25.75;11.27;;;;;;;4.36;100.00;101922.56;5030297;28;20044;-74
2021/12/12 01:59:36;;;;;;;32.58;12.68;;;;;;;4.35;100.00;101923.47;5029142;28;20053;-75
2021/12/12 02:02:10;;;;;;;29.15;12.43;;;;;;;4.34;100.00;101916.47;5030107;28;20091;-75
2021/12/12 02:04:41;;;;;;;26.27;11.32;;;;;;;4.35;100.00;101920.84;5029982;28;20129;-75
2021/12/12 02:07:10;;;;;;;27.35;12.70;;;;;;;4.37;100.00;101923.41;5029758;28;20082;-75
2021/12/12 02:09:36;;;;;;;26.27;12.65;;;;;;;4.36;100.00;101924.31;5030212;28;20033;-74
2021/12/12 02:12:04;;;;;;;26.90;12.70;;;;;;;4.36;100.00;101924.31;5029835;28;20465;-74
2021/12/12 02:14:32;;;;;;;27.80;12.55;;;;;;;4.40;100.00;101924.13;5029612;28;20048;-74
2021/12/12 02:17:06;;;;;;;25.48;12.90;;;;;;;4.39;100.00;101919.78;5030256;28;20102;-75
2021/12/12 02:19:51;;;;;;;28.92;13.30;;;;;;;4.38;100.00;101919.84;5033276;28;20041;-74
2021/12/12 02:22:51;;;;;;;34.65;14.95;;;;;;;4.38;100.00;101925.13;5033942;28;20037;-73
2021/12/12 02:35:59;;;;;;;36.47;19.17;;;;;;;4.37;100.00;101910.22;5021827;28;20544;-76
2021/12/12 02:38:30;;;;;;;45.78;21.20;;;;;;;4.37;100.00;101902.31;5036666;28;20466;-75
2021/12/12 02:41:02;;;;;;;37.72;20.20;;;;;;;4.35;100.00;101896.28;5036877;28;20036;-76
2021/12/12 02:43:31;;;;;;;42.65;22.25;;;;;;;4.37;100.00;101891.78;5037168;28;20056;-76
2021/12/12 02:45:57;;;;;;;37.83;20.63;;;;;;;4.38;100.00;101898.75;5036372;28;20033;-76
2021/12/12 02:48:31;;;;;;;49.65;21.48;;;;;;;4.40;100.00;101904.81;5018831;28;20042;-76
2021/12/12 02:51:00;;;;;;;42.65;21.45;;;;;;;4.40;100.00;101910.06;5036892;28;20025;-76
2021/12/12 02:53:33;;;;;;;41.75;20.95;;;;;;;4.41;100.00;101922.34;5036082;28;20025;-76
2021/12/12 02:56:03;;;;;;;44.75;20.65;;;;;;;4.42;100.00;101910.88;5036200;28;20034;-76
2021/12/12 02:58:29;;;;;;;48.67;22.45;;;;;;;4.42;100.00;101913.50;5019107;28;20111;-76
2021/12/12 03:01:04;;;;;;;45.10;21.98;;;;;;;4.45;100.00;101909.84;5036182;28;20033;-77
2021/12/12 03:03:32;;;;;;;49.22;21.52;;;;;;;4.43;100.00;101909.91;5036162;28;20053;-76
2021/12/12 03:05:57;;;;;;;42.17;20.90;;;;;;;4.44;100.00;101910.81;5036311;28;20509;-77
2021/12/12 03:08:23;;;;;;;48.17;21.85;;;;;;;4.46;100.00;101912.41;5036443;28;20117;-76
2021/12/12 03:10:51;;;;;;;48.25;21.55;;;;;;;4.49;100.00;101904.34;5018652;28;20045;-76
2021/12/12 03:13:18;;;;;;;48.10;20.58;;;;;;;4.50;100.00;101911.34;5035339;28;20358;-76
2021/12/12 03:15:45;;;;;;;57.22;22.42;;;;;;;4.50;100.00;101903.44;5036100;28;20037;-76
2021/12/12 03:18:18;;;;;;;49.30;21.70;;;;;;;4.50;100.00;101898.16;5035557;28;20054;-76
2021/12/12 03:20:49;;;;;;;49.33;22.33;;;;;;;4.54;100.00;101894.47;5035648;28;20037;-76
2021/12/12 03:23:22;;;;;;;47.45;21.23;;;;;;;4.56;100.00;101889.13;5035822;28;20083;-76
2021/12/12 03:26:09;;;;;;;51.60;21.77;;;;;;;4.57;100.00;101880.28;5034547;28;20037;-76
2021/12/12 03:28:36;;;;;;;49.65;22.08;;;;;;;4.61;100.00;101881.81;5034886;28;20041;-76
2021/12/12 03:31:08;;;;;;;50.08;22.45;;;;;;;4.64;100.00;101886.94;5035259;28;20083;-76
2021/12/12 03:33:34;;;;;;;50.05;23.38;;;;;;;4.65;100.00;101880.75;5018544;28;20029;-75
2021/12/12 03:36:04;;;;;;;51.72;22.77;;;;;;;4.71;100.00;101885.72;5035402;28;20044;-77
2021/12/12 03:38:30;;;;;;;54.80;23.15;;;;;;;4.72;100.00;101890.06;5018156;28;20037;-76
2021/12/12 03:40:59;;;;;;;47.75;21.58;;;;;;;4.74;100.00;101905.81;5036026;28;20109;-75
2021/12/12 03:43:25;;;;;;;54.38;22.73;;;;;;;4.71;100.00;101906.81;5035467;28;20462;-76
2021/12/12 03:45:51;;;;;;;42.50;22.25;;;;;;;4.76;100.00;101901.31;5035482;28;20048;-76
2021/12/12 03:48:28;;;;;;;52.92;23.00;;;;;;;4.84;100.00;101907.06;5035315;28;20482;-76
2021/12/12 03:50:58;;;;;;;42.83;21.77;;;;;;;4.86;100.00;101910.47;5035384;28;20029;-76
2021/12/12 03:53:26;;;;;;;40.05;21.70;;;;;;;4.87;100.00;101912.19;5035669;28;20040;-75
2021/12/12 03:55:52;;;;;;;46.97;22.55;;;;;;;4.88;100.00;101910.41;5018102;28;20034;-75
2021/12/12 03:58:19;;;;;;;50.13;23.80;;;;;;;4.91;100.00;101910.25;5034845;28;20040;-75
2021/12/12 04:01:05;;;;;;;48.58;22.50;;;;;;;4.91;100.00;101912.88;5017425;28;20034;-75
2021/12/12 04:03:30;;;;;;;45.30;23.05;;;;;;;4.93;100.00;101911.88;5035519;28;20033;-75
2021/12/12 04:06:00;;;;;;;49.50;22.55;;;;;;;4.92;100.00;101917.25;5035150;28;20160;-75
2021/12/12 04:08:37;;;;;;;49.58;24.75;;;;;;;4.94;100.00;101910.09;5017580;28;20030;-75
2021/12/12 04:11:06;;;;;;;53.25;24.63;;;;;;;4.92;100.00;101904.06;5035795;28;20033;-76
2021/12/12 04:13:37;;;;;;;47.30;23.02;;;;;;;4.97;100.00;101906.47;5035501;28;20029;-76
2021/12/12 04:16:03;;;;;;;46.72;24.40;;;;;;;4.97;100.00;101909.09;5036559;28;20075;-76
2021/12/12 04:18:29;;;;;;;56.25;25.80;;;;;;;4.97;100.00;101911.72;5035109;28;20145;-76
2021/12/12 04:20:55;;;;;;;59.67;25.65;;;;;;;4.97;100.00;101895.91;5033985;28;20041;-75
2021/12/12 04:23:24;;;;;;;59.60;27.88;;;;;;;4.95;100.00;101903.91;5017704;28;20470;-75
2021/12/12 04:25:51;;;;;;;57.35;26.98;;;;;;;5.01;100.00;101913.28;5035406;28;20040;-75
2021/12/12 04:28:17;;;;;;;62.38;28.58;;;;;;;5.03;100.00;101909.66;5034279;28;20025;-75
2021/12/12 04:30:43;;;;;;;67.72;27.60;;;;;;;5.04;100.00;101921.91;5034717;28;20033;-75
2021/12/12 04:33:09;;;;;;;72.40;29.23;;;;;;;5.05;100.00;101912.22;5034585;28;20025;-76
2021/12/12 04:35:35;;;;;;;75.68;30.65;;;;;;;5.06;100.00;101908.63;5034418;28;20052;-75
2021/12/12 04:38:02;;;;;;;69.05;30.55;;;;;;;5.06;100.00;101912.13;5034331;28;20033;-75
2021/12/12 04:40:31;;;;;;;79.40;32.72;;;;;;;5.09;100.00;101905.84;5033861;28;20061;-75
2021/12/12 04:42:57;;;;;;;77.93;31.73;;;;;;;5.14;100.00;101910.91;5034914;28;20029;-76
2021/12/12 04:46:07;;;;;;;71.38;30.45;;;;;;;5.18;100.00;101909.78;5034316;28;20025;-75
2021/12/12 04:51:46;;;;;;;74.60;30.63;;;;;;;5.18;100.00;101923.00;4954681;29;20507;-75
2021/12/12 04:54:33;;;;;;;82.18;33.55;;;;;;;5.20;100.00;101927.25;5019993;28;20054;-75
2021/12/12 04:57:21;;;;;;;67.47;30.80;;;;;;;5.22;100.00;101928.03;5033964;28;20037;-75
2021/12/12 04:59:57;;;;;;;74.18;30.90;;;;;;;5.23;100.00;101928.91;5033698;28;20474;-75
2021/12/12 05:02:37;;;;;;;95.80;35.13;;;;;;;5.21;100.00;101928.97;5033679;28;20030;-75
2021/12/12 05:05:25;;;;;;;90.05;35.88;;;;;;;5.21;100.00;101922.84;5034216;28;20106;-75
2021/12/12 05:07:59;;;;;;;91.07;33.38;;;;;;;5.25;100.00;101930.50;5008206;28;20044;-75
2021/12/12 05:10:30;;;;;;;91.97;35.42;;;;;;;5.24;100.00;101931.47;5016180;28;20457;-75
2021/12/12 05:13:02;;;;;;;98.97;37.70;;;;;;;5.25;100.00;101932.31;5034222;28;20033;-75
2021/12/12 05:15:37;;;;;;;99.60;36.92;;;;;;;5.24;100.00;101928.81;5033691;28;20284;-75
2021/12/12 05:18:12;;;;;;;106.63;38.42;;;;;;;5.27;100.00;101935.75;5015978;28;20045;-75
2021/12/12 05:20:43;;;;;;;101.85;38.10;;;;;;;5.29;100.00;101934.72;5034160;28;20033;-75
2021/12/12 05:23:14;;;;;;;93.57;36.97;;;;;;;5.32;100.00;101935.50;5034046;28;20030;-75
2021/12/12 05:25:52;;;;;;;104.07;39.15;;;;;;;5.29;100.00;101945.25;5032534;28;20083;-75
2021/12/12 05:28:19;;;;;;;109.63;39.35;;;;;;;5.35;100.00;101940.63;5031968;28;20090;-75
2021/12/12 05:30:46;;;;;;;111.07;39.20;;;;;;;5.38;100.00;101945.75;5033296;28;20036;-74
2021/12/12 05:33:15;;;;;;;99.03;38.53;;;;;;;5.39;100.00;101939.50;5016514;28;20029;-77
2021/12/12 05:35:42;;;;;;;115.57;38.97;;;;;;;5.38;100.00;101945.75;5033343;28;20026;-75
2021/12/12 05:38:10;;;;;;;102.38;38.88;;;;;;;5.39;100.00;101937.75;5015569;28;20045;-75
2021/12/12 05:40:38;;;;;;;121.88;40.28;;;;;;;5.43;100.00;101947.22;5033432;28;20037;-75
2021/12/12 05:43:05;;;;;;;114.07;39.65;;;;;;;5.46;100.00;101944.44;5033686;28;20033;-75
2021/12/12 05:45:34;;;;;;;113.70;38.95;;;;;;;5.45;100.00;101952.44;5032998;28;20457;-75
2021/12/12 05:48:00;;;;;;;99.38;38.45;;;;;;;5.46;100.00;101949.72;5015617;28;20071;-74
2021/12/12 05:50:27;;;;;;;117.53;38.75;;;;;;;5.47;100.00;101948.75;5015508;28;20039;-75
2021/12/12 05:52:54;;;;;;;121.45;40.45;;;;;;;5.45;100.00;101958.53;5035427;28;20535;-75
2021/12/12 05:55:24;;;;;;;110.82;41.17;;;;;;;5.47;100.00;101958.47;5020266;28;20064;-75
2021/12/12 05:57:55;;;;;;;111.38;38.20;;;;;;;5.51;100.00;101962.66;5019617;28;20061;-75
2021/12/12 06:00:26;;;;;;;115.30;41.33;;;;;;;5.53;100.00;101958.16;5037631;28;20065;-75
2021/12/12 06:02:52;;;;;;;105.10;38.42;;;;;;;5.57;100.00;101969.38;5037062;28;20022;-74
2021/12/12 06:05:17;;;;;;;119.55;40.42;;;;;;;5.57;100.00;101972.03;5019605;28;20030;-77
2021/12/12 06:07:44;;;;;;;120.53;41.90;;;;;;;5.56;100.00;101967.72;5037482;28;20458;-75
2021/12/12 06:10:12;;;;;;;139.65;44.72;;;;;;;5.58;100.00;101966.69;5019519;28;20063;-74
2021/12/12 06:12:40;;;;;;;125.47;42.17;;;;;;;5.59;100.00;101964.91;5035749;28;20029;-74
2021/12/12 06:15:09;;;;;;;140.43;41.53;;;;;;;5.58;100.00;101968.47;5036822;28;20168;-75
2021/12/12 06:17:35;;;;;;;138.20;42.75;;;;;;;5.59;100.00;101968.38;5036667;28;20057;-74
2021/12/12 06:20:03;;;;;;;147.48;43.83;;;;;;;5.62;100.00;101975.31;5033321;28;20142;-74
2021/12/12 06:22:28;;;;;;;129.77;41.97;;;;;;;5.65;100.00;101983.91;5018779;28;20042;-75
2021/12/12 06:24:54;;;;;;;138.93;42.88;;;;;;;5.69;100.00;101979.34;5036980;28;20044;-75
2021/12/12 06:27:21;;;;;;;127.20;41.45;;;;;;;5.72;100.00;101986.22;5019245;28;20029;-76
2021/12/12 06:29:50;;;;;;;135.80;43.63;;;;;;;5.73;100.00;101972.97;5036908;28;20148;-74
2021/12/12 06:32:16;;;;;;;132.77;41.83;;;;;;;5.76;100.00;101975.47;5037323;28;20040;-74
2021/12/12 06:34:42;;;;;;;139.70;41.58;;;;;;;5.77;100.00;101971.03;5036493;28;20033;-74
2021/12/12 06:37:08;;;;;;;133.70;42.80;;;;;;;5.77;100.00;101971.03;5036398;28;20040;-75
2021/12/12 06:39:34;;;;;;;164.10;43.13;;;;;;;5.77;100.00;101969.22;5036383;28;20045;-75
2021/12/12 06:42:02;;;;;;;129.13;41.25;;;;;;;5.81;100.00;101972.56;5036583;28;20031;-75
2021/12/12 06:44:28;;;;;;;136.40;43.35;;;;;;;5.83;100.00;101974.19;5036528;28;20042;-75
2021/12/12 06:46:54;;;;;;;159.00;43.38;;;;;;;5.89;100.00;101980.94;5036686;28;20033;-75
2021/12/12 06:49:20;;;;;;;136.88;41.55;;;;;;;5.86;100.00;101983.72;5036527;28;20470;-74
2021/12/12 06:51:53;;;;;;;138.52;40.65;;;;;;;5.88;100.00;101987.16;5036443;28;20029;-75
2021/12/12 06:54:22;;;;;;;124.78;40.90;;;;;;;5.93;100.00;101981.63;5036544;28;20462;-75
2021/12/12 06:56:52;;;;;;;142.25;43.10;;;;;;;5.96;100.00;101994.69;5018997;28;20386;-75
2021/12/12 06:59:20;;;;;;;154.32;40.95;;;;;;;5.96;100.00;101994.69;5035988;28;20446;-74
2021/12/12 07:01:45;;;;;;;149.68;43.25;;;;;;;5.95;100.00;101995.59;5036242;28;20041;-75
2021/12/12 07:04:13;;;;;;;158.45;43.20;;;;;;;5.95;100.00;101999.09;5035032;28;20477;-75
2021/12/12 07:06:39;;;;;;;161.85;41.22;;;;;;;5.95;100.00;101991.16;5036087;28;20116;-75
2021/12/12 07:09:08;;;;;;;155.23;42.53;;;;;;;5.98;100.00;102001.59;5035745;28;20463;-75
2021/12/12 07:11:35;;;;;;;157.88;42.70;;;;;;;5.98;100.00;101998.97;5036501;28;20060;-75
2021/12/12 07:14:02;;;;;;;166.60;45.10;;;;;;;5.98;100.00;102004.25;5036011;28;20055;-75
2021/12/12 07:16:27;;;;;;;133.30;42.85;;;;;;;5.99;100.00;102013.06;5035946;28;20048;-75
2021/12/12 07:18:54;;;;;;;162.90;43.78;;;;;;;5.99;100.00;102008.59;5035701;28;20136;-75
2021/12/12 07:21:22;;;;;;;137.88;40.13;;;;;;;5.99;100.00;102008.59;5035653;28;20488;-74
2021/12/12 07:23:49;;;;;;;149.02;42.63;;;;;;;5.98;100.00;102003.41;5035673;28;20103;-74
2021/12/12 07:26:17;;;;;;;149.05;41.33;;;;;;;6.00;100.00;102006.81;5035536;28;20052;-74
2021/12/12 07:28:43;;;;;;;149.30;42.58;;;;;;;6.00;100.00;102010.31;5036423;28;20041;-74
2021/12/12 07:31:19;;;;;;;143.00;41.00;;;;;;;6.02;100.00;102015.53;5035378;28;20037;-73
2021/12/12 07:33:47;;;;;;;148.52;41.72;;;;;;;6.03;100.00;102009.31;5035387;28;20481;-74
2021/12/12 07:36:14;;;;;;;152.23;44.03;;;;;;;6.05;100.00;102006.59;5017653;28;20063;-73
2021/12/12 07:38:54;;;;;;;174.50;44.92;;;;;;;6.08;100.00;102011.72;5017905;28;20033;-73
2021/12/12 07:41:22;;;;;;;165.75;44.30;;;;;;;6.09;100.00;102014.28;5035455;28;20036;-74
2021/12/12 07:43:48;;;;;;;166.20;43.17;;;;;;;6.11;100.00;102017.69;5035211;28;20041;-74
2021/12/12 07:46:14;;;;;;;175.70;44.33;;;;;;;6.13;100.00;102020.25;5035309;28;20036;-75
2021/12/12 07:48:43;;;;;;;158.32;41.80;;;;;;;6.18;100.00;102023.50;5035137;28;20490;-74
2021/12/12 07:51:09;;;;;;;159.27;43.80;;;;;;;6.20;100.00;102026.91;5035991;28;20029;-74
2021/12/12 07:53:35;;;;;;;167.18;44.15;;;;;;;6.21;100.00;102023.34;5034960;28;20042;-74
2021/12/12 07:56:01;;;;;;;163.18;42.53;;;;;;;6.26;100.00;102031.03;5035156;28;20025;-73
2021/12/12 07:58:27;;;;;;;163.95;42.28;;;;;;;6.27;100.00;102032.72;5035208;28;20052;-73
2021/12/12 08:00:56;;;;;;;183.75;43.22;;;;;;;6.28;100.00;102031.78;5034975;28;20033;-74
2021/12/12 08:03:29;;;;;;;193.10;43.42;;;;;;;6.28;100.00;102029.97;5017198;28;20092;-73
2021/12/12 08:05:56;;;;;;;196.93;44.92;;;;;;;6.33;100.00;102043.81;5035262;28;20034;-73
2021/12/12 08:08:24;;;;;;;170.18;42.90;;;;;;;6.37;100.00;102043.66;5034436;28;20025;-72
2021/12/12 08:10:50;;;;;;;166.98;42.00;;;;;;;6.40;100.00;102049.63;5000928;28;20117;-72
2021/12/12 08:13:17;;;;;;;161.52;40.58;;;;;;;6.42;100.00;102052.19;5035720;28;20033;-73
2021/12/12 08:15:43;;;;;;;157.20;42.40;;;;;;;6.44;100.00;102056.47;5034641;28;20059;-72
2021/12/12 08:18:11;;;;;;;140.43;39.90;;;;;;;6.52;100.00;102061.34;5034619;28;20033;-73
2021/12/12 08:20:37;;;;;;;142.70;38.83;;;;;;;6.56;100.00;102067.31;5017142;28;20436;-73
2021/12/12 08:23:05;;;;;;;161.68;39.45;;;;;;;6.57;100.00;102067.25;5033359;28;20087;-72
2021/12/12 08:25:32;;;;;;;137.02;38.17;;;;;;;6.62;100.00;102069.63;5034823;28;20485;-72
2021/12/12 08:28:02;;;;;;;126.25;39.08;;;;;;;6.65;100.00;102072.13;5034450;28;20034;-72
2021/12/12 08:30:29;;;;;;;140.93;39.00;;;;;;;6.65;100.00;102075.59;5034535;28;20037;-72
2021/12/12 08:32:55;;;;;;;117.70;36.30;;;;;;;6.71;100.00;102077.06;5016683;28;20033;-72
2021/12/12 08:35:23;;;;;;;135.27;37.13;;;;;;;6.71;100.00;102080.56;5034968;28;20030;-72
2021/12/12 08:37:49;;;;;;;129.85;35.22;;;;;;;6.73;100.00;102083.13;5035095;28;20041;-72
2021/12/12 08:40:19;;;;;;;117.13;33.40;;;;;;;6.78;100.00;102082.88;5034681;28;20021;-72
2021/12/12 08:42:47;;;;;;;110.25;33.00;;;;;;;6.79;100.00;102085.44;5035263;28;20029;-72
2021/12/12 08:45:15;;;;;;;109.15;31.48;;;;;;;6.81;100.00;102080.91;5034863;28;20033;-72
2021/12/12 08:47:41;;;;;;;107.60;30.27;;;;;;;6.84;100.00;102083.38;5034740;28;20477;-73
2021/12/12 08:50:12;;;;;;;85.18;27.63;;;;;;;6.90;100.00;102087.50;5034986;28;20041;-73
2021/12/12 08:52:42;;;;;;;78.22;27.20;;;;;;;6.97;100.00;102099.47;5035091;28;20052;-79
2021/12/12 08:55:16;;;;;;;76.13;26.10;;;;;;;7.02;100.00;102088.63;5017824;28;20071;-77
2021/12/12 08:57:52;;;;;;;79.68;26.00;;;;;;;7.09;100.00;102097.94;5034408;28;20025;-75
2021/12/12 09:00:22;;;;;;;80.35;25.85;;;;;;;7.14;100.00;102103.81;5035128;28;20474;-75
2021/12/12 09:02:49;;;;;;;68.85;24.30;;;;;;;7.18;100.00;102100.06;5034242;28;20032;-76
2021/12/12 09:05:19;;;;;;;62.80;21.67;;;;;;;7.23;100.00;102110.38;5034150;28;20525;-76
2021/12/12 09:07:49;;;;;;;64.40;21.90;;;;;;;7.30;100.00;102108.22;5034342;28;20033;-76
2021/12/12 09:10:26;;;;;;;71.10;22.30;;;;;;;7.32;100.00;102103.72;5033585;28;20030;-76
2021/12/12 09:13:02;;;;;;;54.85;19.17;;;;;;;7.32;100.00;102111.66;5034115;28;20041;-74
2021/12/12 09:16:11;;;;;;;53.15;19.77;;;;;;;7.34;100.00;102115.91;5015945;28;20072;-74
2021/12/12 09:18:59;;;;;;;53.92;19.30;;;;;;;7.37;100.00;102115.72;4995640;28;20458;-74
2021/12/12 09:21:43;;;;;;;50.00;18.00;;;;;;;7.41;100.00;102117.28;5033804;28;20033;-76
2021/12/12 09:24:16;;;;;;;46.35;17.30;;;;;;;7.48;100.00;102119.56;5033985;28;20063;-77
2021/12/12 09:26:48;;;;;;;40.40;16.23;;;;;;;7.56;100.00;102131.44;5032927;28;20057;-77
2021/12/12 09:29:28;;;;;;;34.45;14.98;;;;;;;7.63;100.00;102131.06;5016630;28;20099;-76
2021/12/12 09:32:03;;;;;;;42.35;16.85;;;;;;;7.65;100.00;102131.84;5033329;28;20044;-77
2021/12/12 09:34:38;;;;;;;38.75;16.27;;;;;;;7.66;100.00;102129.13;5033326;28;20037;-75
2021/12/12 09:37:12;;;;;;;37.75;15.77;;;;;;;7.67;100.00;102133.47;5033359;28;20029;-77
2021/12/12 09:39:47;;;;;;;35.05;14.48;;;;;;;7.67;100.00;102130.81;5033521;28;20033;-75
2021/12/12 09:42:43;;;;;;;45.67;16.08;;;;;;;7.70;100.00;102140.38;5033761;28;20060;-76
2021/12/12 09:45:35;;;;;;;35.83;14.40;;;;;;;7.75;100.00;102135.69;5015775;28;20067;-76
2021/12/12 09:48:14;;;;;;;;;;;;;;;7.76;100.00;102132.06;5015999;28;20104;-76
2021/12/12 09:53:39;;;;;;;40.67;16.23;;;;;;;7.77;100.00;102139.94;5033090;28;20381;-75
2021/12/12 09:56:21;;;;;;;39.65;15.15;;;;;;;7.82;100.00;102138.81;5033287;28;20075;-75
2021/12/12 09:58:55;;;;;;;35.30;14.80;;;;;;;7.85;100.00;102136.00;5032578;28;20032;-76
2021/12/12 10:01:24;;;;;;;34.75;14.60;;;;;;;7.88;100.00;102127.84;5015965;28;20104;-75
2021/12/12 10:04:14;;;;;;;33.70;14.25;;;;;;;7.89;100.00;102133.06;5014770;28;20124;-76
2021/12/12 10:06:49;;;;;;;36.58;15.18;;;;;;;7.88;100.00;102139.31;5015629;28;20047;-76
2021/12/12 10:09:33;;;;;;;31.70;14.00;;;;;;;7.89;100.00;102145.47;5032908;28;20109;-76
2021/12/12 10:12:13;;;;;;;30.08;13.32;;;;;;;7.93;100.00;102142.56;5032823;28;20029;-76
2021/12/12 10:15:05;;;;;;;31.20;13.97;;;;;;;7.93;100.00;102147.00;5032802;28;20029;-75
2021/12/12 10:17:48;;;;;;;28.77;12.88;;;;;;;7.99;100.00;102154.59;5032894;28;20287;-75
2021/12/12 10:20:22;;;;;;;30.05;12.90;;;;;;;8.00;100.00;102148.34;5033719;28;20470;-76
2021/12/12 10:23:13;;;;;;;28.17;13.25;;;;;;;8.02;100.00;102145.63;5033297;28;20207;-76
2021/12/12 10:26:05;;;;;;;31.00;13.82;;;;;;;8.03;100.00;102142.00;5033276;28;20061;-73
2021/12/12 10:28:37;;;;;;;34.10;13.75;;;;;;;8.06;100.00;102148.00;5007401;28;20105;-73
2021/12/12 10:31:13;;;;;;;31.13;14.23;;;;;;;8.08;100.00;102148.75;5033208;28;20391;-73
2021/12/12 10:34:17;;;;;;;25.92;13.70;;;;;;;8.16;100.00;102150.94;5033229;28;20091;-73
2021/12/12 10:37:09;;;;;;;31.98;15.40;;;;;;;8.18;100.00;102146.41;5014744;28;20413;-73
2021/12/12 10:39:42;;;;;;;32.00;15.43;;;;;;;8.20;100.00;102147.16;5036391;28;20061;-74
2021/12/12 10:42:15;;;;;;;35.47;16.08;;;;;;;8.21;100.00;102148.00;5019153;28;20040;-74
2021/12/12 10:44:47;;;;;;;34.55;16.42;;;;;;;8.21;100.00;102154.19;5036323;28;20029;-74
2021/12/12 10:47:28;;;;;;;33.88;16.23;;;;;;;8.26;100.00;102145.94;5036286;28;20037;-73
2021/12/12 10:50:10;;;;;;;34.28;15.95;;;;;;;8.33;100.00;102152.59;5036179;28;20347;-76
2021/12/12 10:53:03;;;;;;;39.75;17.52;;;;;;;8.36;100.00;102156.84;5036135;28;20454;-74
2021/12/12 10:55:47;;;;;;;35.80;17.00;;;;;;;8.41;100.00;102152.13;5036357;28;20033;-73
2021/12/12 10:58:23;;;;;;;37.35;17.30;;;;;;;8.44;100.00;102154.63;5018399;28;20071;-74
2021/12/12 11:00:57;;;;;;;36.40;16.85;;;;;;;8.47;100.00;102152.63;5018743;28;20072;-74
2021/12/12 11:03:28;;;;;;;35.60;17.02;;;;;;;8.49;100.00;102155.19;5036047;28;20466;-74
2021/12/12 11:06:16;;;;;;;29.73;15.20;;;;;;;8.48;100.00;102158.81;5036052;28;20060;-76
2021/12/12 11:09:29;;;;;;;33.78;16.38;;;;;;;8.54;100.00;102157.56;5018871;28;20033;-74
2021/12/12 11:12:13;;;;;;;32.25;16.42;;;;;;;8.56;100.00;102169.78;4955490;29;20039;-75
2021/12/12 11:14:45;;;;;;;27.02;14.82;;;;;;;8.59;100.00;102153.69;4955423;29;20035;-73
2021/12/12 11:17:19;;;;;;;23.27;12.90;;;;;;;8.63;100.00;102165.81;5011425;28;20042;-75
2021/12/12 11:19:57;;;;;;;19.13;10.40;;;;;;;8.65;100.00;102158.59;5035755;28;20067;-73
2021/12/12 11:22:23;;;;;;;21.73;9.13;;;;;;;8.72;100.00;102164.41;5035722;28;20385;-74
2021/12/12 11:24:57;;;;;;;14.38;8.25;;;;;;;8.76;100.00;102162.41;5035321;28;20036;-73
2021/12/12 11:27:39;;;;;;;10.52;6.97;;;;;;;8.77;100.00;102167.63;5035911;28;20072;-74
2021/12/12 11:30:12;;;;;;;9.00;6.63;;;;;;;8.82;100.00;102170.84;5035706;28;20060;-77
2021/12/12 11:32:38;;;;;;;10.25;6.43;;;;;;;8.83;100.00;102171.69;5018706;28;20039;-75
2021/12/12 11:35:06;;;;;;;11.25;6.80;;;;;;;8.85;100.00;102175.09;5035810;28;20026;-78
2021/12/12 11:37:47;;;;;;;16.10;7.15;;;;;;;8.83;100.00;102175.19;5018071;28;20060;-78
2021/12/12 11:40:42;;;;;;;15.63;7.25;;;;;;;8.87;100.00;102170.56;5035361;28;20040;-75
2021/12/12 11:43:20;;;;;;;14.88;7.50;;;;;;;8.90;100.00;102169.53;5034925;28;20535;-74
2021/12/12 11:45:59;;;;;;;16.48;8.35;;;;;;;8.92;100.00;102170.28;5035115;28;20036;-75